Time;durP1;ratioP1;P1;durP2;ratioP2;P2;SDS_P1;SDS_P2;PMS_P1;PMS_P2;Temp;Humidity;BMP_temperature;BMP_pressure;BME280_temperature;BME280_humidity;BME280_pressure;Samples;Min_cycle;Max_cycle;Signal;HPM_P1;HPM_P2
2022/08/23 00:01:47;;;;;;;10.40;4.50;;;19.70;99.90;;;;;;5028809;28;20355;-80
2022/08/23 00:04:25;;;;;;;8.87;4.00;;;19.70;99.90;;;;;;5029021;28;20170;-80
2022/08/23 00:06:53;;;;;;;7.13;4.68;;;19.70;99.90;;;;;;5027008;28;20247;-79
2022/08/23 00:09:21;;;;;;;10.07;4.25;;;19.70;99.90;;;;;;5028253;28;20213;-79
2022/08/23 00:12:06;;;;;;;9.77;4.50;;;19.70;99.90;;;;;;5028039;28;20606;-80
2022/08/23 00:14:34;;;;;;;10.37;4.40;;;19.70;99.90;;;;;;5026996;28;20182;-80
2022/08/23 00:17:00;;;;;;;6.03;4.37;;;19.60;99.90;;;;;;5028310;28;20198;-80
2022/08/23 00:19:27;;;;;;;7.43;4.80;;;19.60;99.90;;;;;;5025499;28;20174;-80
2022/08/23 00:21:54;;;;;;;7.20;4.53;;;19.60;99.90;;;;;;5027309;28;20177;-80
2022/08/23 00:24:22;;;;;;;8.53;4.60;;;19.60;99.90;;;;;;5027377;28;20241;-80
2022/08/23 00:26:58;;;;;;;8.43;4.60;;;19.40;99.90;;;;;;5027515;28;20285;-80
2022/08/23 00:29:29;;;;;;;7.97;5.00;;;19.40;99.90;;;;;;5027361;28;20173;-80
2022/08/23 00:31:55;;;;;;;9.67;4.77;;;19.30;99.90;;;;;;5027637;28;20213;-80
2022/08/23 00:34:21;;;;;;;8.33;4.70;;;19.10;99.90;;;;;;5018768;28;20223;-79
2022/08/23 00:36:49;;;;;;;7.77;5.10;;;19.20;99.90;;;;;;5015850;28;20190;-79
2022/08/23 00:39:15;;;;;;;11.47;5.43;;;19.30;99.90;;;;;;5015399;28;20569;-80
2022/08/23 00:41:41;;;;;;;10.80;4.90;;;19.20;99.90;;;;;;5015296;28;20170;-79
2022/08/23 00:49:53;;;;;;;10.97;5.77;;;18.80;99.90;;;;;;5044916;28;20185;-80
2022/08/23 00:52:23;;;;;;;11.73;5.43;;;19.00;99.90;;;;;;5044727;28;20158;-80
2022/08/23 00:54:51;;;;;;;12.03;5.30;;;18.90;99.90;;;;;;5027279;28;20170;-80
2022/08/23 00:57:18;;;;;;;9.13;5.63;;;18.90;99.90;;;;;;5027327;28;20228;-79
2022/08/23 00:59:45;;;;;;;7.97;5.20;;;18.80;99.90;;;;;;5026146;28;20172;-80
2022/08/23 01:02:11;;;;;;;7.83;5.20;;;18.80;99.90;;;;;;5026544;28;20181;-80
2022/08/23 01:04:41;;;;;;;10.77;5.90;;;18.80;99.90;;;;;;5020916;28;20197;-80
2022/08/23 01:07:07;;;;;;;11.10;5.83;;;18.80;99.90;;;;;;5018184;28;20197;-81
2022/08/23 01:09:32;;;;;;;11.63;6.10;;;18.80;99.90;;;;;;5018238;28;20170;-81
2022/08/23 01:12:16;;;;;;;11.27;5.90;;;18.60;99.90;;;;;;5018097;28;20170;-81
2022/08/23 01:14:48;;;;;;;9.33;5.67;;;18.60;99.90;;;;;;5018508;28;20650;-80
2022/08/23 01:17:21;;;;;;;8.20;7.10;;;18.60;99.90;;;;;;5035691;28;20190;-81
2022/08/23 01:19:51;;;;;;;10.00;5.80;;;18.70;99.90;;;;;;5017696;28;20205;-81
2022/08/23 01:22:58;;;;;;;12.03;5.63;;;18.80;99.90;;;;;;5017871;28;20176;-81
2022/08/23 01:25:29;;;;;;;10.83;6.40;;;18.70;99.90;;;;;;5001121;28;20202;-80
2022/08/23 01:27:56;;;;;;;9.23;5.60;;;18.50;99.90;;;;;;5018104;28;20170;-80
2022/08/23 01:30:25;;;;;;;8.73;5.80;;;18.40;99.90;;;;;;5017876;28;20193;-81
2022/08/23 01:32:57;;;;;;;8.83;5.60;;;18.60;99.90;;;;;;5017125;28;20190;-81
2022/08/23 01:35:40;;;;;;;5.63;5.00;;;18.50;99.90;;;;;;5018215;28;20920;-81
2022/08/23 01:38:07;;;;;;;7.23;5.60;;;18.50;99.90;;;;;;5043923;22;20174;-85
2022/08/23 01:40:33;;;;;;;14.60;6.60;;;18.30;99.90;;;;;;5052612;28;20239;-83
2022/08/23 01:43:00;;;;;;;9.80;5.20;;;18.30;99.90;;;;;;5051933;28;20180;-83
2022/08/23 01:45:26;;;;;;;9.70;5.90;;;18.40;99.90;;;;;;5035333;28;20193;-82
2022/08/23 01:47:52;;;;;;;9.23;5.53;;;18.30;99.90;;;;;;5035371;28;20198;-82
2022/08/23 01:50:18;;;;;;;9.27;5.60;;;18.30;99.90;;;;;;5016940;28;20178;-82
2022/08/23 01:52:43;;;;;;;9.07;5.80;;;18.40;99.90;;;;;;5043274;23;20582;-80
2022/08/23 01:55:09;;;;;;;8.17;5.70;;;18.40;99.90;;;;;;5032280;28;20236;-80
2022/08/23 01:57:35;;;;;;;9.20;5.37;;;18.40;99.90;;;;;;5032791;28;20631;-80
2022/08/23 02:00:01;;;;;;;11.00;5.93;;;18.40;99.90;;;;;;5032293;28;20178;-80
2022/08/23 02:02:27;;;;;;;11.20;5.83;;;18.20;99.90;;;;;;5031677;28;20188;-80
2022/08/23 02:04:52;;;;;;;8.37;5.27;;;18.10;99.90;;;;;;5032137;28;20606;-81
2022/08/23 02:07:19;;;;;;;10.93;5.83;;;18.00;99.90;;;;;;5014209;28;20177;-80
2022/08/23 02:09:45;;;;;;;9.40;5.53;;;18.10;99.90;;;;;;5030919;28;20169;-80
2022/08/23 02:12:10;;;;;;;8.07;5.53;;;18.30;99.90;;;;;;5013627;28;20166;-80
2022/08/23 02:14:36;;;;;;;9.17;6.00;;;18.10;99.90;;;;;;5031937;28;20194;-80
2022/08/23 02:17:03;;;;;;;8.80;5.80;;;18.20;99.90;;;;;;5032346;28;20182;-80
2022/08/23 02:19:29;;;;;;;9.33;5.70;;;18.00;99.90;;;;;;5029606;28;20212;-80
2022/08/23 02:21:54;;;;;;;8.37;6.00;;;18.00;99.90;;;;;;5014456;28;20209;-80
2022/08/23 02:24:23;;;;;;;10.23;5.83;;;17.80;99.90;;;;;;5031820;28;20738;-80
2022/08/23 02:26:51;;;;;;;9.23;5.60;;;18.00;99.90;;;;;;5031812;28;20515;-80
2022/08/23 02:29:19;;;;;;;8.00;5.50;;;17.80;99.90;;;;;;5032233;28;20638;-80
2022/08/23 02:31:46;;;;;;;8.77;5.80;;;17.80;99.90;;;;;;5031294;28;20174;-80
2022/08/23 02:34:13;;;;;;;7.87;5.63;;;17.90;99.90;;;;;;5014324;28;20216;-80
2022/08/23 02:36:39;;;;;;;9.23;5.40;;;17.80;99.90;;;;;;5031842;28;20178;-80
2022/08/23 02:39:06;;;;;;;8.03;5.90;;;17.80;99.90;;;;;;5014106;28;20221;-81
2022/08/23 02:41:32;;;;;;;10.80;5.70;;;17.90;99.90;;;;;;5013353;28;20181;-80
2022/08/23 02:43:58;;;;;;;8.73;5.70;;;18.00;99.90;;;;;;5031572;28;20198;-80
2022/08/23 02:46:24;;;;;;;10.53;5.37;;;17.90;99.90;;;;;;5014136;28;20292;-80
2022/08/23 02:48:50;;;;;;;8.53;5.30;;;17.70;99.90;;;;;;5014206;28;20209;-80
2022/08/23 02:51:16;;;;;;;12.13;5.50;;;17.90;99.90;;;;;;5031632;28;20229;-80
2022/08/23 02:53:42;;;;;;;10.37;5.40;;;17.70;99.90;;;;;;5031612;28;20201;-79
2022/08/23 02:56:09;;;;;;;7.20;5.33;;;17.70;99.90;;;;;;5032107;28;20208;-79
2022/08/23 02:58:35;;;;;;;9.07;4.90;;;17.80;99.90;;;;;;5014776;28;20201;-80
2022/08/23 03:01:00;;;;;;;8.47;5.73;;;17.80;99.90;;;;;;5031882;28;20618;-80
2022/08/23 03:03:26;;;;;;;9.17;5.90;;;17.70;99.90;;;;;;5014212;28;20206;-80
2022/08/23 03:05:52;;;;;;;11.30;5.63;;;17.70;99.90;;;;;;5014434;28;20186;-80
2022/08/23 03:08:21;;;;;;;11.60;5.50;;;17.80;99.90;;;;;;5032307;28;20209;-80
2022/08/23 03:10:49;;;;;;;10.90;5.77;;;17.80;99.90;;;;;;5014234;28;20178;-80
2022/08/23 03:13:15;;;;;;;8.77;5.10;;;17.70;99.90;;;;;;5014854;28;20672;-81
2022/08/23 03:15:41;;;;;;;6.57;5.57;;;17.80;99.90;;;;;;5037336;28;20166;-80
2022/08/23 03:18:09;;;;;;;8.07;5.30;;;17.50;99.90;;;;;;5036131;28;20182;-81
2022/08/23 03:20:35;;;;;;;11.83;5.20;;;17.50;99.90;;;;;;5018947;28;20174;-80
2022/08/23 03:23:00;;;;;;;7.90;5.20;;;17.60;99.90;;;;;;5019275;28;20248;-80
2022/08/23 03:25:27;;;;;;;11.00;5.87;;;17.60;99.90;;;;;;5036092;28;20205;-80
2022/08/23 03:27:53;;;;;;;8.23;5.37;;;17.50;99.90;;;;;;5035769;28;20189;-81
2022/08/23 03:30:18;;;;;;;10.87;6.00;;;17.50;99.90;;;;;;5036041;28;20720;-80
2022/08/23 03:32:44;;;;;;;11.83;5.60;;;17.50;99.90;;;;;;5035419;28;20558;-80
2022/08/23 03:35:10;;;;;;;9.53;5.40;;;17.50;99.90;;;;;;5035953;28;20166;-80
2022/08/23 03:37:35;;;;;;;6.07;5.57;;;17.50;99.90;;;;;;5018095;28;20174;-80
2022/08/23 03:40:03;;;;;;;8.50;5.37;;;17.30;99.90;;;;;;5035110;28;20262;-80
2022/08/23 03:42:29;;;;;;;9.43;5.63;;;17.40;99.90;;;;;;5034806;28;20177;-81
2022/08/23 03:44:54;;;;;;;5.83;5.33;;;17.30;99.90;;;;;;5032838;28;20554;-80
2022/08/23 03:47:20;;;;;;;11.57;5.17;;;17.40;99.90;;;;;;5017123;28;20174;-80
2022/08/23 03:49:45;;;;;;;7.23;5.27;;;17.40;99.90;;;;;;5016752;28;20174;-80
2022/08/23 03:52:12;;;;;;;9.67;5.77;;;17.40;99.90;;;;;;5034774;28;20178;-80
2022/08/23 03:54:37;;;;;;;12.47;5.50;;;17.30;99.90;;;;;;5034503;28;20205;-80
2022/08/23 03:57:08;;;;;;;9.17;5.70;;;17.40;99.90;;;;;;5034477;28;20170;-80
2022/08/23 03:59:36;;;;;;;6.90;5.50;;;17.30;99.90;;;;;;5030366;28;20192;-80
2022/08/23 04:02:01;;;;;;;6.97;5.30;;;17.30;99.90;;;;;;5034114;28;20201;-80
2022/08/23 04:04:27;;;;;;;8.07;5.40;;;17.20;99.90;;;;;;5034135;28;20194;-80
2022/08/23 04:06:53;;;;;;;11.33;5.60;;;17.10;99.90;;;;;;5034319;28;20177;-80
2022/08/23 04:09:19;;;;;;;8.13;5.37;;;17.40;99.90;;;;;;5033553;28;20568;-80
2022/08/23 04:11:44;;;;;;;11.10;5.23;;;17.40;99.90;;;;;;5015715;28;20210;-80
2022/08/23 04:14:11;;;;;;;8.37;5.60;;;17.30;99.90;;;;;;5016559;28;20658;-80
2022/08/23 04:16:37;;;;;;;9.07;5.23;;;17.20;99.90;;;;;;5034054;28;20224;-80
2022/08/23 04:19:04;;;;;;;9.13;5.37;;;17.20;99.90;;;;;;5034069;28;20174;-80
2022/08/23 04:21:30;;;;;;;8.57;5.10;;;17.20;99.90;;;;;;5016468;28;20193;-80
2022/08/23 04:23:56;;;;;;;8.13;5.57;;;17.20;99.90;;;;;;5034099;28;20693;-80
2022/08/23 04:26:22;;;;;;;11.03;5.37;;;17.20;99.90;;;;;;5016214;28;20201;-80
2022/08/23 04:28:48;;;;;;;10.40;5.30;;;17.10;99.90;;;;;;5033792;28;20170;-80
2022/08/23 04:31:14;;;;;;;12.17;5.80;;;17.20;99.90;;;;;;5033905;28;20170;-80
2022/08/23 04:33:40;;;;;;;10.03;5.33;;;17.30;99.90;;;;;;5015278;28;20186;-80
2022/08/23 04:36:06;;;;;;;10.43;5.07;;;17.30;99.90;;;;;;5033951;28;20180;-80
2022/08/23 04:38:31;;;;;;;8.30;5.27;;;17.20;99.90;;;;;;5033779;28;20181;-80
2022/08/23 04:43:42;;;;;;;5.70;5.10;;;17.10;99.90;;;;;;5033820;28;20204;-80
2022/08/23 04:46:09;;;;;;;13.87;5.23;;;17.10;99.90;;;;;;5015886;28;20248;-80
2022/08/23 04:48:34;;;;;;;12.77;5.40;;;17.30;99.90;;;;;;5033716;28;20190;-80
2022/08/23 04:51:00;;;;;;;11.57;5.60;;;17.30;99.90;;;;;;5015485;28;20644;-79
2022/08/23 04:53:28;;;;;;;9.97;6.10;;;17.20;99.90;;;;;;5015681;28;20213;-80
2022/08/23 04:55:54;;;;;;;8.63;5.57;;;17.20;99.90;;;;;;5033812;28;20173;-80
2022/08/23 04:58:20;;;;;;;11.57;5.73;;;17.30;99.90;;;;;;5034022;28;20162;-80
2022/08/23 05:00:50;;;;;;;14.50;5.50;;;17.30;99.90;;;;;;5033319;28;20188;-80
2022/08/23 05:03:16;;;;;;;8.43;5.20;;;17.30;99.90;;;;;;5033244;28;20563;-80
2022/08/23 05:05:42;;;;;;;6.97;5.33;;;17.20;99.90;;;;;;5033657;28;20204;-80
2022/08/23 05:08:08;;;;;;;12.90;5.70;;;17.40;99.90;;;;;;5033788;28;20166;-80
2022/08/23 05:10:33;;;;;;;11.67;5.30;;;17.30;99.90;;;;;;5015644;28;20174;-80
2022/08/23 05:12:59;;;;;;;9.73;5.67;;;17.50;99.90;;;;;;5032590;28;20719;-80
2022/08/23 05:15:24;;;;;;;11.53;6.03;;;17.60;99.90;;;;;;5033476;28;20170;-81
2022/08/23 05:17:51;;;;;;;9.23;5.50;;;17.50;99.90;;;;;;5015265;28;20166;-80
2022/08/23 05:20:17;;;;;;;16.20;6.00;;;17.50;99.90;;;;;;5033045;28;20646;-81
2022/08/23 05:22:42;;;;;;;9.43;5.07;;;17.50;99.90;;;;;;5032783;28;20213;-80
2022/08/23 05:25:08;;;;;;;7.57;4.43;;;17.50;99.90;;;;;;5033086;28;20190;-80
2022/08/23 05:27:34;;;;;;;13.97;5.20;;;17.50;99.90;;;;;;5014939;28;20176;-78
2022/08/23 05:30:00;;;;;;;8.93;4.43;;;17.60;99.90;;;;;;5032938;28;20201;-79
2022/08/23 05:32:25;;;;;;;11.53;4.23;;;17.70;99.90;;;;;;5032566;28;20201;-79
2022/08/23 05:34:51;;;;;;;12.50;4.33;;;17.90;99.90;;;;;;5032581;28;20181;-78
2022/08/23 05:37:17;;;;;;;10.93;4.00;;;18.00;99.90;;;;;;5014919;28;20170;-79
2022/08/23 05:39:42;;;;;;;8.90;4.23;;;18.10;99.90;;;;;;5032035;28;20174;-80
2022/08/23 05:42:11;;;;;;;9.73;3.97;;;18.30;99.90;;;;;;5031971;28;20174;-78
2022/08/23 05:44:37;;;;;;;8.57;3.70;;;18.20;99.90;;;;;;5032307;28;20200;-79
2022/08/23 05:47:09;;;;;;;8.33;3.70;;;18.50;99.90;;;;;;5014648;28;20257;-79
2022/08/23 05:49:35;;;;;;;13.30;4.20;;;18.60;99.90;;;;;;5015676;28;20170;-79
2022/08/23 05:52:06;;;;;;;8.13;3.83;;;18.80;99.90;;;;;;5033077;28;20170;-81
2022/08/23 05:54:32;;;;;;;8.40;3.20;;;18.80;99.90;;;;;;5017742;28;20233;-81
2022/08/23 05:56:57;;;;;;;10.13;3.30;;;18.90;99.90;;;;;;5036510;28;20173;-80
2022/08/23 05:59:23;;;;;;;9.07;3.23;;;19.10;99.90;;;;;;5034079;28;20401;-79
2022/08/23 06:01:49;;;;;;;7.93;3.23;;;19.30;99.90;;;;;;5014834;28;20167;-81
2022/08/23 06:04:14;;;;;;;5.93;3.07;;;19.50;99.90;;;;;;5032801;28;20268;-81
2022/08/23 06:06:41;;;;;;;7.07;3.03;;;19.50;99.90;;;;;;5032949;28;20244;-81
2022/08/23 06:09:08;;;;;;;8.10;3.20;;;19.80;99.90;;;;;;5030029;28;20248;-81
2022/08/23 06:11:35;;;;;;;6.55;3.20;;;19.90;99.90;;;;;;5031687;28;20642;-81
2022/08/23 06:14:03;;;;;;;6.32;2.60;;;20.50;99.90;;;;;;5033336;28;20182;-81
2022/08/23 06:16:32;;;;;;;5.55;2.85;;;20.80;99.90;;;;;;5015056;28;20651;-81
2022/08/23 06:19:01;;;;;;;9.55;2.95;;;21.20;99.90;;;;;;5014861;28;20178;-79
2022/08/23 06:21:27;;;;;;;9.07;2.92;;;21.50;99.90;;;;;;5014994;28;20523;-79
2022/08/23 06:23:53;;;;;;;6.70;2.50;;;21.70;99.90;;;;;;5014744;28;20202;-80
2022/08/23 06:26:22;;;;;;;4.80;2.35;;;22.00;99.90;;;;;;5032379;28;20241;-78
2022/08/23 06:28:50;;;;;;;4.88;2.55;;;21.80;99.90;;;;;;5032502;28;20242;-80
2022/08/23 06:31:43;;;;;;;12.52;2.78;;;22.00;99.90;;;;;;5032497;28;20177;-81
2022/08/23 06:34:03;;;;;;;7.07;2.75;;;22.00;99.90;;;;;;5032954;28;20269;-81
2022/08/23 06:36:28;;;;;;;14.48;3.10;;;21.90;99.90;;;;;;5033170;28;20260;-81
2022/08/23 06:38:54;;;;;;;7.75;2.70;;;22.40;99.90;;;;;;5033200;28;20209;-81
2022/08/23 06:41:19;;;;;;;6.78;2.53;;;22.40;99.90;;;;;;5014695;28;20180;-81
2022/08/23 06:43:45;;;;;;;7.20;2.97;;;23.00;99.90;;;;;;5033198;28;20194;-81
2022/08/23 06:46:20;;;;;;;8.65;2.78;;;23.30;99.90;;;;;;5033280;28;20557;-81
2022/08/23 06:48:46;;;;;;;6.40;2.50;;;23.50;99.90;;;;;;5015381;28;20177;-81
2022/08/23 06:51:21;;;;;;;10.55;2.65;;;23.20;99.90;;;;;;5014838;28;20174;-80
2022/08/23 06:53:47;;;;;;;3.03;2.50;;;24.00;99.90;;;;;;5014919;28;20213;-80
2022/08/23 06:56:13;;;;;;;5.45;2.75;;;24.10;99.40;;;;;;5016466;28;20290;-81
2022/08/23 06:58:39;;;;;;;10.30;2.65;;;23.60;99.90;;;;;;5037328;28;20182;-80
2022/08/23 07:01:17;;;;;;;6.18;2.55;;;23.70;99.90;;;;;;5036808;28;20177;-81
2022/08/23 07:03:42;;;;;;;7.45;2.67;;;23.80;99.50;;;;;;5037111;28;20220;-83
2022/08/23 07:06:08;;;;;;;10.80;2.58;;;24.00;99.40;;;;;;5036558;28;20689;-83
2022/08/23 07:08:33;;;;;;;7.18;3.00;;;23.80;99.30;;;;;;5036160;28;20551;-83
2022/08/23 07:10:59;;;;;;;6.10;2.80;;;24.10;99.20;;;;;;5035881;28;20172;-83
2022/08/23 07:13:25;;;;;;;7.25;2.40;;;24.70;98.20;;;;;;5033640;28;20185;-84
2022/08/23 07:15:55;;;;;;;9.00;2.85;;;25.30;97.80;;;;;;5015529;28;20245;-82
2022/08/23 07:18:20;;;;;;;5.50;2.30;;;25.30;97.20;;;;;;5035189;28;20170;-82
2022/08/23 07:20:46;;;;;;;7.97;3.03;;;25.20;96.70;;;;;;5033566;28;20174;-83
2022/08/23 07:23:11;;;;;;;6.90;2.53;;;25.60;97.00;;;;;;5033629;28;20251;-82
2022/08/23 07:25:39;;;;;;;7.57;2.53;;;25.40;95.90;;;;;;5016493;28;20274;-82
2022/08/23 07:28:04;;;;;;;5.60;2.30;;;24.90;96.30;;;;;;5036263;28;20625;-83
2022/08/23 07:30:30;;;;;;;9.23;2.83;;;25.80;96.20;;;;;;5035642;28;20201;-82
2022/08/23 07:32:55;;;;;;;9.05;2.60;;;26.60;94.90;;;;;;5035073;28;20190;-82
2022/08/23 07:35:21;;;;;;;8.25;2.47;;;26.10;95.00;;;;;;5017556;28;20216;-82
2022/08/23 07:37:47;;;;;;;4.35;2.35;;;26.40;95.60;;;;;;5017720;28;20173;-82
2022/08/23 07:40:12;;;;;;;6.13;2.45;;;26.70;95.00;;;;;;5016798;28;20204;-82
2022/08/23 07:42:38;;;;;;;5.82;2.60;;;26.70;94.80;;;;;;5035317;28;20221;-82
2022/08/23 07:45:05;;;;;;;7.47;2.70;;;26.60;93.60;;;;;;5035277;28;20272;-80
2022/08/23 07:47:31;;;;;;;9.07;2.50;;;27.20;93.50;;;;;;5017913;28;20231;-80
2022/08/23 07:49:56;;;;;;;10.90;2.55;;;27.50;93.80;;;;;;5017640;28;20192;-81
2022/08/23 07:52:22;;;;;;;6.25;2.42;;;27.90;93.50;;;;;;5035587;28;20654;-80
2022/08/23 07:54:48;;;;;;;5.05;2.40;;;27.80;92.00;;;;;;5024704;23;20214;-84
2022/08/23 07:57:13;;;;;;;6.07;2.45;;;28.00;91.60;;;;;;5017680;28;20557;-83
2022/08/23 07:59:40;;;;;;;6.93;2.30;;;27.60;92.10;;;;;;5035771;28;20174;-82
2022/08/23 08:02:06;;;;;;;8.18;2.40;;;28.10;90.70;;;;;;5017811;28;20206;-83
2022/08/23 08:04:31;;;;;;;3.65;2.40;;;28.10;91.00;;;;;;5018117;28;20208;-82
2022/08/23 08:06:59;;;;;;;2.97;2.47;;;28.20;90.50;;;;;;5017434;28;20241;-82
2022/08/23 08:09:25;;;;;;;7.20;2.17;;;28.00;90.40;;;;;;5016904;28;20174;-83
2022/08/23 08:11:51;;;;;;;7.88;2.67;;;28.10;89.70;;;;;;5035439;28;20652;-82
2022/08/23 08:14:17;;;;;;;12.82;2.70;;;28.60;89.30;;;;;;5017753;28;20174;-83
2022/08/23 08:16:48;;;;;;;9.07;2.40;;;28.20;89.70;;;;;;5035248;28;20224;-83
2022/08/23 08:19:18;;;;;;;7.47;2.42;;;29.00;89.00;;;;;;5017087;28;20617;-82
2022/08/23 08:21:44;;;;;;;5.68;2.53;;;29.00;88.70;;;;;;5017053;28;20184;-83
2022/08/23 08:24:13;;;;;;;7.78;2.33;;;29.10;88.00;;;;;;5017106;28;20208;-83
2022/08/23 08:26:40;;;;;;;4.25;2.33;;;28.80;87.10;;;;;;5017608;28;20259;-84
2022/08/23 08:29:09;;;;;;;13.93;2.65;;;28.20;87.20;;;;;;5017352;28;20178;-84
2022/08/23 08:31:37;;;;;;;4.75;2.17;;;29.00;88.80;;;;;;5017143;28;20167;-83
2022/08/23 08:34:02;;;;;;;9.30;2.47;;;29.40;87.60;;;;;;5017556;28;20170;-84
2022/08/23 08:36:34;;;;;;;5.03;2.40;;;28.90;87.00;;;;;;5017244;28;20205;-84
2022/08/23 08:39:02;;;;;;;12.15;2.45;;;29.40;85.00;;;;;;5016897;28;20561;-83
2022/08/23 08:42:08;;;;;;;3.50;2.33;;;29.40;84.60;;;;;;5016510;28;20678;-82
2022/08/23 08:44:44;;;;;;;5.78;2.47;;;29.00;84.90;;;;;;5016773;28;20264;-84
2022/08/23 08:47:22;;;;;;;4.95;2.13;;;29.50;83.80;;;;;;5016918;28;20193;-83
2022/08/23 08:50:00;;;;;;;5.07;2.58;;;29.60;84.90;;;;;;5017127;28;20245;-82
2022/08/23 08:52:36;;;;;;;4.28;2.50;;;29.90;84.00;;;;;;5016504;28;20170;-84
2022/08/23 08:55:35;;;;;;;4.93;2.42;;;29.80;83.30;;;;;;5020037;28;20189;-84
2022/08/23 08:58:05;;;;;;;5.38;2.60;;;29.60;83.40;;;;;;5011521;28;20214;-85
2022/08/23 09:00:35;;;;;;;10.00;2.53;;;29.60;83.90;;;;;;5019029;28;20174;-85
2022/08/23 09:03:08;;;;;;;4.93;2.30;;;28.70;82.90;;;;;;5018269;28;20185;-85
2022/08/23 09:05:38;;;;;;;7.72;2.75;;;29.30;85.00;;;;;;5020208;28;20205;-85
2022/08/23 09:08:31;;;;;;;6.85;2.60;;;30.50;82.90;;;;;;5019591;28;20194;-84
2022/08/23 09:11:21;;;;;;;4.07;2.30;;;29.90;82.80;;;;;;5018138;28;20213;-85
2022/08/23 09:14:21;;;;;;;9.25;2.42;;;30.30;83.00;;;;;;5018263;28;20170;-85
2022/08/23 09:17:02;;;;;;;7.18;2.28;;;30.40;83.20;;;;;;5017506;28;20566;-84
2022/08/23 09:19:32;;;;;;;6.93;2.85;;;29.60;83.20;;;;;;5016713;28;20711;-84
2022/08/23 09:22:04;;;;;;;10.57;2.60;;;30.30;80.70;;;;;;5017589;28;20182;-84
2022/08/23 09:24:30;;;;;;;5.38;3.22;;;30.10;81.90;;;;;;5017636;28;20174;-84
2022/08/23 09:26:56;;;;;;;8.63;2.70;;;30.70;81.00;;;;;;5017018;28;20194;-84
2022/08/23 09:29:31;;;;;;;7.15;2.35;;;30.50;82.20;;;;;;5017557;28;20193;-85
2022/08/23 09:32:03;;;;;;;6.93;2.58;;;30.70;82.10;;;;;;5017489;28;20174;-85
2022/08/23 09:34:28;;;;;;;5.75;2.80;;;30.30;81.60;;;;;;5018174;28;20189;-84
2022/08/23 09:37:05;;;;;;;7.65;2.63;;;31.00;79.90;;;;;;5017308;28;20669;-85
2022/08/23 09:39:33;;;;;;;3.72;2.50;;;30.90;80.70;;;;;;5017753;28;20182;-84
2022/08/23 09:41:59;;;;;;;5.13;2.30;;;30.30;79.10;;;;;;5017855;28;20177;-85
2022/08/23 09:44:36;;;;;;;6.25;2.80;;;30.40;80.20;;;;;;5017133;28;20712;-85
2022/08/23 09:47:20;;;;;;;5.22;2.67;;;30.70;79.60;;;;;;5017157;28;20197;-85
2022/08/23 09:49:47;;;;;;;8.13;2.33;;;31.20;79.30;;;;;;5017084;28;20258;-85
2022/08/23 09:52:19;;;;;;;5.60;2.55;;;30.70;79.30;;;;;;5016374;28;20182;-84
2022/08/23 09:54:54;;;;;;;4.82;2.55;;;30.00;79.20;;;;;;5017116;28;20520;-84
2022/08/23 09:57:26;;;;;;;3.28;2.92;;;31.10;80.00;;;;;;5016508;28;20201;-84
2022/08/23 09:59:54;;;;;;;7.03;3.08;;;30.50;78.80;;;;;;5017134;28;20162;-84
2022/08/23 10:02:20;;;;;;;7.10;2.95;;;30.60;78.50;;;;;;5016347;28;20261;-84
2022/08/23 10:05:06;;;;;;;5.53;2.40;;;31.70;77.10;;;;;;5016762;28;20217;-84
2022/08/23 10:07:40;;;;;;;4.22;2.58;;;31.40;78.10;;;;;;5016903;28;20165;-82
2022/08/23 10:10:29;;;;;;;7.20;2.90;;;30.90;77.50;;;;;;5017229;28;20585;-81
2022/08/23 10:12:57;;;;;;;8.60;2.40;;;31.30;76.90;;;;;;5016279;28;20630;-81
2022/08/23 10:15:32;;;;;;;4.97;2.35;;;31.30;78.00;;;;;;5016411;28;20178;-81
2022/08/23 10:18:06;;;;;;;7.13;2.53;;;31.20;78.20;;;;;;5017282;28;20178;-82
2022/08/23 10:20:50;;;;;;;6.03;3.28;;;30.70;77.80;;;;;;5034917;28;20181;-82
2022/08/23 10:23:27;;;;;;;3.80;2.35;;;30.70;78.20;;;;;;5017083;28;20166;-80
2022/08/23 10:26:00;;;;;;;7.00;2.50;;;31.90;77.50;;;;;;5017009;28;20697;-83
2022/08/23 10:32:08;;;;;;;4.88;2.53;;;31.50;75.30;;;;;;5034143;28;20212;-81
2022/08/23 10:34:59;;;;;;;6.82;2.60;;;32.20;75.30;;;;;;5016782;28;20182;-82
2022/08/23 10:37:57;;;;;;;3.38;2.58;;;32.60;74.70;;;;;;5017798;28;20198;-82
2022/08/23 10:40:46;;;;;;;7.93;3.78;;;32.70;75.10;;;;;;5017605;28;20170;-81
2022/08/23 10:43:32;;;;;;;4.03;2.30;;;31.70;75.80;;;;;;5016899;28;20170;-81
2022/08/23 10:46:00;;;;;;;3.72;2.65;;;31.20;75.80;;;;;;5016689;28;20225;-82
2022/08/23 10:48:53;;;;;;;9.00;2.70;;;31.00;75.00;;;;;;5015525;28;20175;-83
2022/08/23 10:51:32;;;;;;;5.88;2.45;;;30.80;74.90;;;;;;5015838;28;20205;-82
2022/08/23 10:54:02;;;;;;;3.53;2.35;;;31.50;75.20;;;;;;5015787;28;20186;-82
2022/08/23 10:56:28;;;;;;;8.48;3.05;;;31.70;73.20;;;;;;5015817;28;20694;-81
2022/08/23 10:58:59;;;;;;;6.03;2.40;;;31.70;75.50;;;;;;5016821;28;20182;-82
2022/08/23 11:01:34;;;;;;;8.45;2.70;;;31.80;76.20;;;;;;5016346;28;20664;-84
2022/08/23 11:04:07;;;;;;;4.10;2.58;;;31.80;74.50;;;;;;5016028;28;20166;-82
2022/08/23 11:06:36;;;;;;;2.95;2.33;;;32.20;73.90;;;;;;5015398;28;20708;-83
2022/08/23 11:09:20;;;;;;;10.95;3.15;;;32.00;73.90;;;;;;5016251;28;20178;-83
2022/08/23 11:12:02;;;;;;;11.13;2.78;;;32.30;73.60;;;;;;5016025;28;20177;-83
2022/08/23 11:14:35;;;;;;;10.60;2.65;;;32.90;74.00;;;;;;5016107;28;20177;-84
2022/08/23 11:17:04;;;;;;;5.85;2.88;;;33.90;71.90;;;;;;5015998;28;20189;-84
2022/08/23 11:19:52;;;;;;;4.45;2.60;;;33.70;70.60;;;;;;5015954;28;20174;-82
2022/08/23 11:22:21;;;;;;;4.50;2.30;;;34.40;71.60;;;;;;5015390;28;20154;-82
2022/08/23 11:25:00;;;;;;;5.28;2.88;;;32.80;72.80;;;;;;5015334;28;20174;-84
2022/08/23 11:27:30;;;;;;;2.78;2.28;;;32.30;72.90;;;;;;5015180;28;20194;-83
2022/08/23 11:29:56;;;;;;;4.82;2.47;;;32.00;73.10;;;;;;5015847;28;20174;-84
2022/08/23 11:32:32;;;;;;;5.07;2.70;;;32.40;72.90;;;;;;5014952;28;20620;-82
2022/08/23 11:35:27;;;;;;;5.63;3.00;;;32.20;72.50;;;;;;5015209;28;20162;-81
2022/08/23 11:38:01;;;;;;;8.40;2.78;;;31.70;73.70;;;;;;4998828;28;20174;-80
2022/08/23 11:40:37;;;;;;;5.50;2.72;;;32.40;74.60;;;;;;5015655;28;20605;-82
2022/08/23 11:43:11;;;;;;;11.10;3.10;;;32.00;72.60;;;;;;5016954;28;20268;-82
2022/08/23 11:45:36;;;;;;;7.03;2.75;;;31.50;73.60;;;;;;5018262;28;20209;-82
2022/08/23 11:48:28;;;;;;;4.55;2.83;;;31.70;73.50;;;;;;5018218;28;20178;-82
2022/08/23 11:51:02;;;;;;;7.63;2.92;;;32.00;73.10;;;;;;5018248;28;20174;-81
2022/08/23 11:53:57;;;;;;;6.88;2.75;;;31.80;72.80;;;;;;5018492;28;20190;-82
2022/08/23 11:56:35;;;;;;;8.18;2.58;;;32.40;72.60;;;;;;5018183;28;20197;-80
2022/08/23 11:59:19;;;;;;;3.45;2.42;;;33.00;70.80;;;;;;5014371;23;20223;-80
2022/08/23 12:01:45;;;;;;;4.88;2.78;;;33.50;70.20;;;;;;4996462;28;20722;-82
2022/08/23 12:04:39;;;;;;;8.20;2.33;;;33.50;69.10;;;;;;4995526;28;20255;-81
2022/08/23 12:07:11;;;;;;;6.15;2.67;;;32.60;71.10;;;;;;4994490;28;20180;-82
2022/08/23 12:09:40;;;;;;;9.48;2.70;;;32.70;71.90;;;;;;4996117;28;20667;-78
2022/08/23 12:12:12;;;;;;;6.72;2.33;;;32.80;71.40;;;;;;4994936;28;20195;-80
2022/08/23 12:14:49;;;;;;;8.65;2.67;;;31.50;70.90;;;;;;5016860;23;20218;-82
2022/08/23 12:17:14;;;;;;;5.18;2.40;;;31.40;72.30;;;;;;4998881;28;20225;-82
2022/08/23 12:19:59;;;;;;;5.63;2.72;;;31.80;73.60;;;;;;5016013;28;20254;-82
2022/08/23 12:22:33;;;;;;;5.80;2.65;;;32.00;74.40;;;;;;4999001;28;20201;-81
2022/08/23 12:25:04;;;;;;;9.07;2.97;;;31.90;71.80;;;;;;4998845;28;20213;-81
2022/08/23 12:27:35;;;;;;;6.50;2.40;;;31.70;72.80;;;;;;4998650;28;20221;-80
2022/08/23 12:30:07;;;;;;;7.93;2.70;;;31.10;72.70;;;;;;4998679;28;20618;-81
2022/08/23 12:32:41;;;;;;;4.22;2.50;;;31.20;71.50;;;;;;4998140;28;20179;-80
2022/08/23 12:35:50;;;;;;;6.90;2.80;;;31.50;72.80;;;;;;4997682;28;20201;-82
2022/08/23 12:38:18;;;;;;;4.70;2.60;;;31.40;71.80;;;;;;4938962;29;20181;-81
2022/08/23 12:40:48;;;;;;;4.20;2.30;;;31.20;71.20;;;;;;4938424;29;20180;-81
2022/08/23 12:43:26;;;;;;;3.63;2.42;;;31.10;72.30;;;;;;4971449;28;20179;-82
2022/08/23 12:45:54;;;;;;;9.20;2.75;;;30.90;72.10;;;;;;4997399;28;20202;-81
2022/08/23 12:48:26;;;;;;;8.00;2.47;;;30.80;73.00;;;;;;4997891;28;20225;-82
2022/08/23 12:50:58;;;;;;;5.32;2.80;;;31.20;72.60;;;;;;4997322;28;20171;-81
2022/08/23 12:53:30;;;;;;;4.95;2.47;;;30.80;72.80;;;;;;5001151;28;20604;-82
2022/08/23 12:56:16;;;;;;;6.55;2.53;;;31.10;72.90;;;;;;5003384;28;20195;-82
2022/08/23 12:58:50;;;;;;;7.18;2.50;;;30.70;72.30;;;;;;5003051;28;20265;-83
2022/08/23 13:01:28;;;;;;;11.45;2.85;;;31.10;72.80;;;;;;5002974;28;20221;-82
2022/08/23 13:04:02;;;;;;;5.63;2.60;;;31.10;73.30;;;;;;5002514;28;20201;-83
2022/08/23 13:06:33;;;;;;;3.60;2.60;;;31.20;72.40;;;;;;5001428;28;20211;-82
2022/08/23 13:09:39;;;;;;;2.65;2.40;;;31.00;71.80;;;;;;5001539;28;20194;-83
2022/08/23 13:12:08;;;;;;;7.65;2.47;;;30.20;71.10;;;;;;4941239;29;20661;-83
2022/08/23 13:14:42;;;;;;;8.30;2.88;;;30.40;72.50;;;;;;4939519;29;20188;-84